createdAt,value
2018-03-23T08:21:59.563Z,11.23
2018-03-23T08:24:27.914Z,11.83
2018-03-23T08:27:03.705Z,11.90
2018-03-23T08:29:32.063Z,15.73
2018-03-23T08:32:00.408Z,14.53
2018-03-23T08:34:47.838Z,15.60
2018-03-23T08:40:08.474Z,14.57
2018-03-23T08:42:36.798Z,13.70
2018-03-23T08:45:08.868Z,13.27
2018-03-23T08:47:45.099Z,15.30
2018-03-23T08:50:13.303Z,13.20
2018-03-23T08:52:41.634Z,13.83
2018-03-23T08:55:32.601Z,13.90
2018-03-23T08:58:14.904Z,14.53
2018-03-23T09:00:43.226Z,16.13
2018-03-23T09:03:11.794Z,17.07
2018-03-23T09:05:40.161Z,16.57
2018-03-23T09:08:08.511Z,16.97
2018-03-23T09:10:36.847Z,16.97
2018-03-23T09:13:05.181Z,13.23
2018-03-23T09:15:33.507Z,13.30
2018-03-23T09:18:01.876Z,14.20
2018-03-23T09:20:30.232Z,14.03
2018-03-23T09:22:58.721Z,14.80
2018-03-23T09:25:30.060Z,14.90
2018-03-23T09:27:58.371Z,16.17
2018-03-23T09:30:26.753Z,15.73
2018-03-23T09:33:05.377Z,16.10
2018-03-23T09:41:29.583Z,15.10
2018-03-23T09:46:48.871Z,13.60
2018-03-23T09:49:17.234Z,13.77
2018-03-23T09:51:45.593Z,14.37
2018-03-23T09:54:13.974Z,14.57
2018-03-23T09:56:42.335Z,11.97
2018-03-23T13:29:11.199Z,10.30
2018-03-23T13:31:39.563Z,10.30
2018-03-23T13:34:08.267Z,10.50
2018-03-23T13:36:36.614Z,10.40
2018-03-23T13:39:04.585Z,10.47
2018-03-23T13:41:33.056Z,10.23
2018-03-23T13:44:01.529Z,10.07
2018-03-23T13:46:29.849Z,11.00
2018-03-23T13:48:58.225Z,10.70
2018-03-23T13:51:26.545Z,10.63
2018-03-23T13:53:54.871Z,11.77
2018-03-23T13:56:23.194Z,11.80
2018-03-23T13:59:04.819Z,11.20
2018-03-23T14:01:38.640Z,11.87
2018-03-23T14:04:25.839Z,11.37
2018-03-23T14:06:54.177Z,12.00
2018-03-23T14:09:22.511Z,11.57
2018-03-23T14:11:50.860Z,11.57
2018-03-23T14:14:19.314Z,12.27
2018-03-23T14:17:09.757Z,11.33
2018-03-23T14:19:53.963Z,11.47
2018-03-23T14:22:22.360Z,12.23
2018-03-23T14:24:50.903Z,12.00
2018-03-23T14:27:19.266Z,11.10
2018-03-23T14:29:47.615Z,10.90
2018-03-23T14:32:15.958Z,10.87
2018-03-23T14:34:56.864Z,12.03
2018-03-23T14:37:25.211Z,11.50
2018-03-23T14:39:53.526Z,11.83
2018-03-23T14:42:21.886Z,12.20
2018-03-23T14:44:50.247Z,10.87
2018-03-23T18:43:16.631Z,22.23
2018-03-23T18:45:45.105Z,19.87
2018-03-23T18:48:13.459Z,21.60
2018-03-23T18:51:00.488Z,19.20
2018-03-23T18:53:28.907Z,18.10
2018-03-23T18:56:02.975Z,13.33
2018-03-23T18:58:31.392Z,11.53
2018-03-23T19:00:59.802Z,8.97
2018-03-23T19:03:28.271Z,9.00
2018-03-23T19:05:58.254Z,8.00
2018-03-23T19:08:26.874Z,8.80
2018-03-23T19:10:55.295Z,7.87
2018-03-23T19:13:23.617Z,8.53
2018-03-23T19:15:51.963Z,8.97
2018-03-23T19:21:15.091Z,9.60
2018-03-23T19:23:43.172Z,10.57
2018-03-23T19:26:11.511Z,9.97
2018-03-23T19:28:39.862Z,9.90
2018-03-23T19:31:08.206Z,9.60
2018-03-23T19:33:36.537Z,10.67
2018-03-23T19:36:04.872Z,10.30
2018-03-23T19:38:33.223Z,10.87
2018-03-23T19:41:01.577Z,14.80
2018-03-23T19:43:29.968Z,15.60
2018-03-23T19:45:58.920Z,18.17
2018-03-23T19:48:27.251Z,16.67
2018-03-23T19:50:55.588Z,14.77
2018-03-23T19:53:23.925Z,13.47
2018-03-23T19:55:52.257Z,13.17
2018-03-23T19:58:20.620Z,12.40
2018-03-23T20:00:48.975Z,13.03
2018-03-23T20:03:17.332Z,13.37
2018-03-23T20:05:45.688Z,11.23
2018-03-23T20:08:14.011Z,8.20
2018-03-23T20:10:42.359Z,8.33
2018-03-23T20:13:10.735Z,8.00
2018-03-23T20:15:39.169Z,8.50
2018-03-23T20:18:12.929Z,7.57
2018-03-23T20:20:58.943Z,7.60
2018-03-23T20:23:27.282Z,8.47
2018-03-23T20:31:43.148Z,8.80
2018-03-23T20:34:11.473Z,8.60
2018-03-23T20:36:39.832Z,8.00
2018-03-23T20:39:08.186Z,9.43
2018-03-23T20:41:46.779Z,9.07
2018-03-23T20:47:20.249Z,8.53
2018-03-23T20:49:48.567Z,8.60
2018-03-23T20:52:17.843Z,8.00
2018-03-23T20:54:46.185Z,8.83
2018-03-23T20:57:14.512Z,8.80
2018-03-23T20:59:46.571Z,7.27
2018-03-23T21:02:15.017Z,8.00
2018-03-23T21:04:43.433Z,8.20
2018-03-23T21:07:11.775Z,8.10
2018-03-23T21:09:40.304Z,7.97
2018-03-23T21:12:08.642Z,8.00
2018-03-23T21:14:36.831Z,7.47
2018-03-23T21:17:05.007Z,7.07
2018-03-23T21:19:33.342Z,7.73
2018-03-23T21:22:01.719Z,8.17
2018-03-23T21:24:30.230Z,12.00
2018-03-23T21:26:58.602Z,7.90
2018-03-23T21:29:26.935Z,12.17
2018-03-23T21:31:55.266Z,7.07
2018-03-23T21:34:23.668Z,8.27
2018-03-23T21:37:06.264Z,7.63
2018-03-23T21:42:23.751Z,7.13
2018-03-23T21:44:52.080Z,7.23
2018-03-23T21:47:32.205Z,8.23
2018-03-23T21:50:00.558Z,7.77
2018-03-23T21:52:28.903Z,7.40
2018-03-23T21:57:51.683Z,7.50
2018-03-23T22:00:20.011Z,7.17
2018-03-23T22:02:48.374Z,6.47
2018-03-23T22:05:16.701Z,7.80
2018-03-23T22:07:45.024Z,6.73
2018-03-23T22:13:05.996Z,6.87
2018-03-23T22:15:34.343Z,7.00
2018-03-23T22:18:08.299Z,6.93
2018-03-23T22:20:54.628Z,6.90
2018-03-23T22:23:22.983Z,7.33
2018-03-23T22:25:51.305Z,7.83
2018-03-23T22:28:19.635Z,7.00
2018-03-23T22:30:47.985Z,7.37
2018-03-23T22:33:16.122Z,7.40
2018-03-23T22:35:44.481Z,8.57
2018-03-23T23:27:21.839Z,9.60
2018-03-23T23:29:50.159Z,9.20
2018-03-23T23:32:18.491Z,7.47
2018-03-23T23:34:46.802Z,7.27
2018-03-23T23:37:15.257Z,6.90
2018-03-23T23:39:43.558Z,6.63
2018-03-23T23:42:11.884Z,6.90
2018-03-23T23:44:45.667Z,5.93
2018-03-23T23:47:13.997Z,6.30
2018-03-23T23:49:42.349Z,6.33
2018-03-23T23:52:10.691Z,6.20
2018-03-23T23:54:39.028Z,5.33
2018-03-23T23:57:07.355Z,6.33
2018-03-23T23:59:35.674Z,6.17
